Time;durP1;ratioP1;P1;durP2;ratioP2;P2;SDS_P1;SDS_P2;PMS_P1;PMS_P2;Temp;Humidity;BMP_temperature;BMP_pressure;BME280_temperature;BME280_humidity;BME280_pressure;Samples;Min_cycle;Max_cycle;Signal;HPM_P1;HPM_P2
2020/01/11 00:01:00;;;;;;;7.65;5.9;;;;;;;5.75;80.97266;96315.36;;;;
2020/01/11 00:02:14;;;;;;;8.1;6.05;;;;;;;5.79;82.18359;96317.56;;;;
2020/01/11 00:08:33;;;;;;;8.1;6.05;;;;;;;5.79;82.18359;96317.56;;;;
2020/01/11 00:12:57;;;;;;;9.15;6.799999;;;;;;;5.62;81.62402;96315.63;;;;
2020/01/11 00:13:57;;;;;;;9.15;6.799999;;;;;;;5.62;81.62402;96315.63;;;;
2020/01/11 00:14:58;;;;;;;9.15;6.799999;;;;;;;5.62;81.62402;96315.63;;;;
2020/01/11 00:15:58;;;;;;;9.15;6.799999;;;;;;;5.62;81.62402;96315.63;;;;
2020/01/11 00:16:59;;;;;;;9.15;6.799999;;;;;;;5.62;81.62402;96315.63;;;;
2020/01/11 00:17:59;;;;;;;9.15;6.799999;;;;;;;5.62;81.62402;96315.63;;;;
2020/01/11 00:19:00;;;;;;;9.15;6.799999;;;;;;;5.62;81.62402;96315.63;;;;
2020/01/11 00:20:01;;;;;;;9.15;6.799999;;;;;;;5.62;81.62402;96315.63;;;;
2020/01/11 00:21:01;;;;;;;9.15;6.799999;;;;;;;5.62;81.62402;96315.63;;;;
2020/01/11 00:22:02;;;;;;;9.15;6.799999;;;;;;;5.62;81.62402;96315.63;;;;
2020/01/11 00:23:03;;;;;;;11.05;7.1;;;;;;;5.53;81.77539;96343.48;;;;
2020/01/11 00:24:03;;;;;;;11.05;7.1;;;;;;;5.53;81.77539;96343.48;;;;
2020/01/11 00:25:04;;;;;;;11.05;7.1;;;;;;;5.53;81.77539;96343.48;;;;
2020/01/11 00:26:04;;;;;;;11.05;7.1;;;;;;;5.53;81.77539;96343.48;;;;
2020/01/11 00:27:04;;;;;;;11.05;7.1;;;;;;;5.53;81.77539;96343.48;;;;
2020/01/11 00:28:05;;;;;;;11.05;7.1;;;;;;;5.53;81.77539;96343.48;;;;
2020/01/11 00:29:06;;;;;;;11.05;7.1;;;;;;;5.53;81.77539;96343.48;;;;
2020/01/11 00:30:06;;;;;;;11.05;7.1;;;;;;;5.53;81.77539;96343.48;;;;
2020/01/11 00:31:06;;;;;;;11.05;7.1;;;;;;;5.53;81.77539;96343.48;;;;
2020/01/11 00:32:07;;;;;;;11.05;7.1;;;;;;;5.53;81.77539;96343.48;;;;
2020/01/11 00:33:07;;;;;;;10;7.05;;;;;;;5.45;81.62402;96357.76;;;;
2020/01/11 00:34:08;;;;;;;10;7.05;;;;;;;5.45;81.62402;96357.76;;;;
2020/01/11 00:35:08;;;;;;;10;7.05;;;;;;;5.45;81.62402;96357.76;;;;
2020/01/11 00:36:09;;;;;;;9.899999;7.25;;;;;;;5.5;82.64551;96356.83;;;;
2020/01/11 00:37:10;;;;;;;9.899999;7.25;;;;;;;5.5;82.64551;96356.83;;;;
2020/01/11 00:38:10;;;;;;;9.899999;7.25;;;;;;;5.5;82.64551;96356.83;;;;
2020/01/11 00:39:11;;;;;;;9.899999;7.25;;;;;;;5.5;82.64551;96356.83;;;;
2020/01/11 00:40:13;;;;;;;9.899999;7.25;;;;;;;5.5;82.64551;96356.83;;;;
2020/01/11 00:41:14;;;;;;;9.899999;7.25;;;;;;;5.5;82.64551;96356.83;;;;
2020/01/11 00:42:15;;;;;;;9.899999;7.25;;;;;;;5.5;82.64551;96356.83;;;;
2020/01/11 00:43:15;;;;;;;9.899999;7.25;;;;;;;5.5;82.64551;96356.83;;;;
2020/01/11 00:44:16;;;;;;;9.899999;7.25;;;;;;;5.5;82.64551;96356.83;;;;
2020/01/11 00:45:16;;;;;;;9.899999;7.25;;;;;;;5.5;82.64551;96356.83;;;;
2020/01/11 00:46:17;;;;;;;11.1;7.599999;;;;;;;5.46;82.11035;96361.28;;;;
2020/01/11 00:47:17;;;;;;;11.1;7.599999;;;;;;;5.46;82.11035;96361.28;;;;
2020/01/11 00:48:18;;;;;;;11.1;7.599999;;;;;;;5.46;82.11035;96361.28;;;;
2020/01/11 00:49:18;;;;;;;8.9;7.25;;;;;;;5.5;83.0459;96359.51;;;;
2020/01/11 00:50:19;;;;;;;8.9;7.25;;;;;;;5.5;83.0459;96359.51;;;;
2020/01/11 00:51:19;;;;;;;8.9;7.25;;;;;;;5.5;83.0459;96359.51;;;;
2020/01/11 00:52:20;;;;;;;8.9;7.25;;;;;;;5.5;83.0459;96359.51;;;;
2020/01/11 00:53:20;;;;;;;8.9;7.25;;;;;;;5.5;83.0459;96359.51;;;;
2020/01/11 00:54:21;;;;;;;8.9;7.25;;;;;;;5.5;83.0459;96359.51;;;;
2020/01/11 00:55:21;;;;;;;8.9;7.25;;;;;;;5.5;83.0459;96359.51;;;;
2020/01/11 00:56:22;;;;;;;8.9;7.25;;;;;;;5.5;83.0459;96359.51;;;;
2020/01/11 00:57:22;;;;;;;8.9;7.25;;;;;;;5.5;83.0459;96359.51;;;;
2020/01/11 00:58:23;;;;;;;8.9;7.25;;;;;;;5.5;83.0459;96359.51;;;;
2020/01/11 00:59:23;;;;;;;8.9;7.25;;;;;;;5.5;83.0459;96359.51;;;;
2020/01/11 01:00:24;;;;;;;10.55;7.4;;;;;;;5.24;82.48047;96383.01;;;;
2020/01/11 01:01:36;;;;;;;10.55;7.4;;;;;;;5.24;82.48047;96383.01;;;;
2020/01/11 01:02:37;;;;;;;10.55;7.4;;;;;;;5.24;82.48047;96383.01;;;;
2020/01/11 01:03:55;;;;;;;10.55;7.4;;;;;;;5.24;82.48047;96383.01;;;;
2020/01/11 01:04:56;;;;;;;10.55;7.4;;;;;;;5.24;82.48047;96383.01;;;;
2020/01/11 01:05:57;;;;;;;10.55;7.4;;;;;;;5.24;82.48047;96383.01;;;;
2020/01/11 01:06:57;;;;;;;10.55;7.4;;;;;;;5.24;82.48047;96383.01;;;;
2020/01/11 01:07:58;;;;;;;10.55;7.4;;;;;;;5.24;82.48047;96383.01;;;;
2020/01/11 01:08:59;;;;;;;10.55;7.4;;;;;;;5.24;82.48047;96383.01;;;;
2020/01/11 01:09:59;;;;;;;10.55;7.4;;;;;;;5.24;82.48047;96383.01;;;;
2020/01/11 01:11:08;;;;;;;10.9;8.000001;;;;;;;4.93;82.85156;96410.79;;;;
2020/01/11 01:12:08;;;;;;;10.9;8.000001;;;;;;;4.93;82.85156;96410.79;;;;
2020/01/11 01:13:12;;;;;;;10.9;8.000001;;;;;;;4.93;82.85156;96410.79;;;;
2020/01/11 01:14:12;;;;;;;10.9;8.000001;;;;;;;4.93;82.85156;96410.79;;;;
2020/01/11 01:15:13;;;;;;;10.9;8.000001;;;;;;;4.93;82.85156;96410.79;;;;
2020/01/11 01:16:17;;;;;;;10.9;8.000001;;;;;;;4.93;82.85156;96410.79;;;;
2020/01/11 01:17:17;;;;;;;10.9;8.000001;;;;;;;4.93;82.85156;96410.79;;;;
2020/01/11 01:18:18;;;;;;;10.9;8.000001;;;;;;;4.93;82.85156;96410.79;;;;
2020/01/11 01:19:19;;;;;;;10.9;8.000001;;;;;;;4.93;82.85156;96410.79;;;;
2020/01/11 01:20:19;;;;;;;10.9;8.000001;;;;;;;4.93;82.85156;96410.79;;;;
2020/01/11 01:21:21;;;;;;;12.05;7.600001;;;;;;;4.87;82.58789;96408.72;;;;
2020/01/11 01:22:21;;;;;;;12.05;7.600001;;;;;;;4.87;82.58789;96408.72;;;;
2020/01/11 01:23:22;;;;;;;12.05;7.600001;;;;;;;4.87;82.58789;96408.72;;;;
2020/01/11 01:24:23;;;;;;;12.05;7.600001;;;;;;;4.87;82.58789;96408.72;;;;
2020/01/11 01:25:23;;;;;;;12.05;7.600001;;;;;;;4.87;82.58789;96408.72;;;;
2020/01/11 01:26:24;;;;;;;12.05;7.600001;;;;;;;4.87;82.58789;96408.72;;;;
2020/01/11 01:27:24;;;;;;;12.05;7.600001;;;;;;;4.87;82.58789;96408.72;;;;
2020/01/11 01:28:24;;;;;;;12.05;7.600001;;;;;;;4.87;82.58789;96408.72;;;;
2020/01/11 01:29:25;;;;;;;12.05;7.600001;;;;;;;4.87;82.58789;96408.72;;;;
2020/01/11 01:30:25;;;;;;;12.05;7.600001;;;;;;;4.87;82.58789;96408.72;;;;
2020/01/11 01:31:26;;;;;;;9.799999;7.5;;;;;;;4.95;82.69922;96427.4;;;;
2020/01/11 01:32:27;;;;;;;9.799999;7.5;;;;;;;4.95;82.69922;96427.4;;;;
2020/01/11 01:33:27;;;;;;;9.799999;7.5;;;;;;;4.95;82.69922;96427.4;;;;
2020/01/11 01:34:27;;;;;;;9.799999;7.5;;;;;;;4.95;82.69922;96427.4;;;;
2020/01/11 01:35:28;;;;;;;9.799999;7.5;;;;;;;4.95;82.69922;96427.4;;;;
2020/01/11 01:36:28;;;;;;;9.799999;7.5;;;;;;;4.95;82.69922;96427.4;;;;
2020/01/11 01:37:29;;;;;;;9.799999;7.5;;;;;;;4.95;82.69922;96427.4;;;;
2020/01/11 01:38:29;;;;;;;9.799999;7.5;;;;;;;4.95;82.69922;96427.4;;;;
2020/01/11 01:39:30;;;;;;;9.799999;7.5;;;;;;;4.95;82.69922;96427.4;;;;
2020/01/11 01:40:33;;;;;;;9.799999;7.5;;;;;;;4.95;82.69922;96427.4;;;;
2020/01/11 01:41:34;;;;;;;9.799999;7.5;;;;;;;4.95;82.69922;96427.4;;;;
2020/01/11 01:42:34;;;;;;;11.55;7.700001;;;;;;;4.96;82.32129;96426.9;;;;
2020/01/11 01:43:35;;;;;;;11.55;7.700001;;;;;;;4.96;82.32129;96426.9;;;;
2020/01/11 01:44:35;;;;;;;11.55;7.700001;;;;;;;4.96;82.32129;96426.9;;;;
2020/01/11 01:45:36;;;;;;;11.55;7.700001;;;;;;;4.96;82.32129;96426.9;;;;
2020/01/11 01:46:36;;;;;;;11.55;7.700001;;;;;;;4.96;82.32129;96426.9;;;;
2020/01/11 01:47:37;;;;;;;11.55;7.700001;;;;;;;4.96;82.32129;96426.9;;;;
2020/01/11 01:48:37;;;;;;;11.55;7.700001;;;;;;;4.96;82.32129;96426.9;;;;
2020/01/11 01:49:38;;;;;;;11.55;7.700001;;;;;;;4.96;82.32129;96426.9;;;;
2020/01/11 01:50:38;;;;;;;11.55;7.700001;;;;;;;4.96;82.32129;96426.9;;;;
2020/01/11 01:51:39;;;;;;;11.55;7.700001;;;;;;;4.96;82.32129;96426.9;;;;
2020/01/11 01:52:39;;;;;;;9.599999;7.349999;;;;;;;5.04;82.37988;96431.3;;;;
2020/01/11 01:53:40;;;;;;;9.599999;7.349999;;;;;;;5.04;82.37988;96431.3;;;;
2020/01/11 01:54:40;;;;;;;9.599999;7.349999;;;;;;;5.04;82.37988;96431.3;;;;
2020/01/11 01:55:41;;;;;;;9.599999;7.349999;;;;;;;5.04;82.37988;96431.3;;;;
2020/01/11 01:56:41;;;;;;;9.599999;7.349999;;;;;;;5.04;82.37988;96431.3;;;;
2020/01/11 01:57:42;;;;;;;9.599999;7.349999;;;;;;;5.04;82.37988;96431.3;;;;
2020/01/11 01:58:42;;;;;;;9.599999;7.349999;;;;;;;5.04;82.37988;96431.3;;;;
2020/01/11 01:59:43;;;;;;;9.599999;7.349999;;;;;;;5.04;82.37988;96431.3;;;;
2020/01/11 02:00:43;;;;;;;9.599999;7.349999;;;;;;;5.04;82.37988;96431.3;;;;
2020/01/11 02:02:03;;;;;;;9.599999;7.349999;;;;;;;5.04;82.37988;96431.3;;;;
2020/01/11 02:03:04;;;;;;;9.599999;7.349999;;;;;;;5.04;82.37988;96431.3;;;;
2020/01/11 02:04:04;;;;;;;10.4;7.400001;;;;;;;5.02;82.19727;96437.74;;;;
2020/01/11 02:05:05;;;;;;;10.4;7.400001;;;;;;;5.02;82.19727;96437.74;;;;
2020/01/11 02:06:06;;;;;;;10.4;7.400001;;;;;;;5.02;82.19727;96437.74;;;;
2020/01/11 02:07:06;;;;;;;10.4;7.400001;;;;;;;5.02;82.19727;96437.74;;;;
2020/01/11 02:08:07;;;;;;;10.4;7.400001;;;;;;;5.02;82.19727;96437.74;;;;
2020/01/11 02:09:08;;;;;;;10.4;7.400001;;;;;;;5.02;82.19727;96437.74;;;;
2020/01/11 02:10:08;;;;;;;10.4;7.400001;;;;;;;5.02;82.19727;96437.74;;;;
2020/01/11 02:11:09;;;;;;;10.4;7.400001;;;;;;;5.02;82.19727;96437.74;;;;
2020/01/11 02:12:09;;;;;;;10.4;7.400001;;;;;;;5.02;82.19727;96437.74;;;;
2020/01/11 02:13:10;;;;;;;10.4;7.400001;;;;;;;5.02;82.19727;96437.74;;;;
2020/01/11 02:14:10;;;;;;;9.9;7;;;;;;;5.07;82.25684;96456.89;;;;
2020/01/11 02:15:10;;;;;;;9.9;7;;;;;;;5.07;82.25684;96456.89;;;;
2020/01/11 02:16:11;;;;;;;9.9;7;;;;;;;5.07;82.25684;96456.89;;;;
2020/01/11 02:17:11;;;;;;;9.9;7;;;;;;;5.07;82.25684;96456.89;;;;
2020/01/11 02:18:12;;;;;;;9.9;7;;;;;;;5.07;82.25684;96456.89;;;;
2020/01/11 02:19:12;;;;;;;9.9;7;;;;;;;5.07;82.25684;96456.89;;;;
2020/01/11 02:20:13;;;;;;;9.9;7;;;;;;;5.07;82.25684;96456.89;;;;
2020/01/11 02:21:13;;;;;;;9.9;7;;;;;;;5.07;82.25684;96456.89;;;;
2020/01/11 02:22:14;;;;;;;9.9;7;;;;;;;5.07;82.25684;96456.89;;;;
2020/01/11 02:23:14;;;;;;;9.9;7;;;;;;;5.07;82.25684;96456.89;;;;
2020/01/11 02:24:15;;;;;;;9.9;7;;;;;;;5.07;82.25684;96456.89;;;;
2020/01/11 02:25:15;;;;;;;8.899999;7;;;;;;;5.04;82.3457;96454.57;;;;
2020/01/11 02:26:16;;;;;;;8.899999;7;;;;;;;5.04;82.3457;96454.57;;;;
2020/01/11 02:27:16;;;;;;;8.899999;7;;;;;;;5.04;82.3457;96454.57;;;;
2020/01/11 02:28:16;;;;;;;8.899999;7;;;;;;;5.04;82.3457;96454.57;;;;
2020/01/11 02:29:17;;;;;;;8.899999;7;;;;;;;5.04;82.3457;96454.57;;;;
2020/01/11 02:30:22;;;;;;;8.899999;7;;;;;;;5.04;82.3457;96454.57;;;;
2020/01/11 02:36:42;;;;;;;9.1;6.7;;;;;;;5.06;82.30957;96477.87;;;;
2020/01/11 02:37:48;;;;;;;9.1;6.7;;;;;;;5.06;82.30957;96477.87;;;;
2020/01/11 02:38:49;;;;;;;9.1;6.7;;;;;;;5.06;82.30957;96477.87;;;;
2020/01/11 02:39:49;;;;;;;9.1;6.7;;;;;;;5.06;82.30957;96477.87;;;;
2020/01/11 02:40:50;;;;;;;9.1;6.7;;;;;;;5.06;82.30957;96477.87;;;;
2020/01/11 02:41:50;;;;;;;9.1;6.7;;;;;;;5.06;82.30957;96477.87;;;;
2020/01/11 02:42:51;;;;;;;9.1;6.7;;;;;;;5.06;82.30957;96477.87;;;;
2020/01/11 02:43:51;;;;;;;9.1;6.7;;;;;;;5.06;82.30957;96477.87;;;;
2020/01/11 02:44:52;;;;;;;9.1;6.7;;;;;;;5.06;82.30957;96477.87;;;;
2020/01/11 02:45:52;;;;;;;8.85;6.149999;;;;;;;5.03;82.12305;96462.25;;;;
2020/01/11 02:46:53;;;;;;;8.85;6.149999;;;;;;;5.03;82.12305;96462.25;;;;
2020/01/11 02:47:53;;;;;;;8.85;6.149999;;;;;;;5.03;82.12305;96462.25;;;;
2020/01/11 02:48:54;;;;;;;8.85;6.149999;;;;;;;5.03;82.12305;96462.25;;;;
2020/01/11 02:49:54;;;;;;;8.85;6.149999;;;;;;;5.03;82.12305;96462.25;;;;
2020/01/11 02:50:55;;;;;;;8.85;6.149999;;;;;;;5.03;82.12305;96462.25;;;;
2020/01/11 02:51:55;;;;;;;8.85;6.149999;;;;;;;5.03;82.12305;96462.25;;;;
2020/01/11 02:52:56;;;;;;;8.85;6.149999;;;;;;;5.03;82.12305;96462.25;;;;
2020/01/11 02:53:56;;;;;;;8.85;6.149999;;;;;;;5.03;82.12305;96462.25;;;;
2020/01/11 02:54:56;;;;;;;8.85;6.149999;;;;;;;5.03;82.12305;96462.25;;;;
2020/01/11 02:55:57;;;;;;;8.85;6.149999;;;;;;;5.03;82.12305;96462.25;;;;
2020/01/11 02:56:57;;;;;;;8.349998;6.299999;;;;;;;5.04;82.14746;96466.09;;;;
2020/01/11 02:57:58;;;;;;;8.349998;6.299999;;;;;;;5.04;82.14746;96466.09;;;;
2020/01/11 02:58:58;;;;;;;8.349998;6.299999;;;;;;;5.04;82.14746;96466.09;;;;
2020/01/11 02:59:59;;;;;;;8.349998;6.299999;;;;;;;5.04;82.14746;96466.09;;;;
2020/01/11 03:00:59;;;;;;;8.349998;6.299999;;;;;;;5.04;82.14746;96466.09;;;;
2020/01/11 03:01:59;;;;;;;8.349998;6.299999;;;;;;;5.04;82.14746;96466.09;;;;
2020/01/11 03:03:00;;;;;;;8.349998;6.299999;;;;;;;5.04;82.14746;96466.09;;;;
2020/01/11 03:04:00;;;;;;;8.349998;6.299999;;;;;;;5.04;82.14746;96466.09;;;;
2020/01/11 03:05:01;;;;;;;8.349998;6.299999;;;;;;;5.04;82.14746;96466.09;;;;
2020/01/11 03:06:03;;;;;;;8.349998;6.299999;;;;;;;5.04;82.14746;96466.09;;;;
2020/01/11 03:07:03;;;;;;;9.049999;6.749999;;;;;;;4.97;82.03711;96472.3;;;;
2020/01/11 03:08:04;;;;;;;9.049999;6.749999;;;;;;;4.97;82.03711;96472.3;;;;
2020/01/11 03:09:04;;;;;;;9.049999;6.749999;;;;;;;4.97;82.03711;96472.3;;;;
2020/01/11 03:10:05;;;;;;;9.049999;6.749999;;;;;;;4.97;82.03711;96472.3;;;;
2020/01/11 03:11:05;;;;;;;9.049999;6.749999;;;;;;;4.97;82.03711;96472.3;;;;
2020/01/11 03:12:06;;;;;;;9.049999;6.749999;;;;;;;4.97;82.03711;96472.3;;;;
2020/01/11 03:13:07;;;;;;;9.049999;6.749999;;;;;;;4.97;82.03711;96472.3;;;;
2020/01/11 03:14:07;;;;;;;9.049999;6.749999;;;;;;;4.97;82.03711;96472.3;;;;
2020/01/11 03:15:07;;;;;;;9.049999;6.749999;;;;;;;4.97;82.03711;96472.3;;;;
2020/01/11 03:16:08;;;;;;;9.049999;6.749999;;;;;;;4.97;82.03711;96472.3;;;;
2020/01/11 03:17:09;;;;;;;9.049999;6.749999;;;;;;;4.97;82.03711;96472.3;;;;
2020/01/11 03:18:09;;;;;;;10.05;7.2;;;;;;;4.99;82.2002;96484.09;;;;
2020/01/11 03:19:10;;;;;;;10.05;7.2;;;;;;;4.99;82.2002;96484.09;;;;
2020/01/11 03:20:10;;;;;;;10.05;7.2;;;;;;;4.99;82.2002;96484.09;;;;
2020/01/11 03:21:10;;;;;;;10.05;7.2;;;;;;;4.99;82.2002;96484.09;;;;
2020/01/11 03:22:11;;;;;;;10.05;7.2;;;;;;;4.99;82.2002;96484.09;;;;
2020/01/11 03:23:11;;;;;;;10.05;7.2;;;;;;;4.99;82.2002;96484.09;;;;
2020/01/11 03:24:12;;;;;;;10.05;7.2;;;;;;;4.99;82.2002;96484.09;;;;
2020/01/11 03:25:12;;;;;;;10.05;7.2;;;;;;;4.99;82.2002;96484.09;;;;
2020/01/11 03:26:13;;;;;;;10.05;7.2;;;;;;;4.99;82.2002;96484.09;;;;
2020/01/11 03:27:13;;;;;;;10.05;7.2;;;;;;;4.99;82.2002;96484.09;;;;
2020/01/11 03:28:14;;;;;;;8.649999;6.45;;;;;;;4.93;82.26367;96494.98;;;;
2020/01/11 03:29:14;;;;;;;8.649999;6.45;;;;;;;4.93;82.26367;96494.98;;;;
2020/01/11 03:30:15;;;;;;;8.649999;6.45;;;;;;;4.93;82.26367;96494.98;;;;
2020/01/11 03:31:15;;;;;;;8.649999;6.45;;;;;;;4.93;82.26367;96494.98;;;;
2020/01/11 03:32:16;;;;;;;8.649999;6.45;;;;;;;4.93;82.26367;96494.98;;;;
2020/01/11 03:33:16;;;;;;;8.649999;6.45;;;;;;;4.93;82.26367;96494.98;;;;
2020/01/11 03:34:17;;;;;;;8.649999;6.45;;;;;;;4.93;82.26367;96494.98;;;;
2020/01/11 03:35:17;;;;;;;8.649999;6.45;;;;;;;4.93;82.26367;96494.98;;;;
2020/01/11 03:36:17;;;;;;;8.649999;6.45;;;;;;;4.93;82.26367;96494.98;;;;
2020/01/11 03:37:18;;;;;;;8.649999;6.45;;;;;;;4.93;82.26367;96494.98;;;;
2020/01/11 03:38:18;;;;;;;8.649999;6.45;;;;;;;4.93;82.26367;96494.98;;;;
2020/01/11 03:39:19;;;;;;;8.649999;6.45;;;;;;;4.93;82.26367;96494.98;;;;
2020/01/11 03:40:19;;;;;;;8.649999;6.45;;;;;;;4.93;82.26367;96494.98;;;;
2020/01/11 03:41:20;;;;;;;8.649999;6.45;;;;;;;4.93;82.26367;96494.98;;;;
2020/01/11 03:42:21;;;;;;;8.649999;6.45;;;;;;;4.93;82.26367;96494.98;;;;
2020/01/11 03:43:24;;;;;;;8.649999;6.45;;;;;;;4.93;82.26367;96494.98;;;;
2020/01/11 03:44:25;;;;;;;8.649999;6.45;;;;;;;4.93;82.26367;96494.98;;;;
2020/01/11 03:45:26;;;;;;;8.649999;6.45;;;;;;;4.93;82.26367;96494.98;;;;
2020/01/11 03:46:30;;;;;;;8.649999;6.45;;;;;;;4.93;82.26367;96494.98;;;;
2020/01/11 03:47:32;;;;;;;8.649999;6.45;;;;;;;4.93;82.26367;96494.98;;;;
2020/01/11 03:48:34;;;;;;;8.649999;6.45;;;;;;;4.93;82.26367;96494.98;;;;
2020/01/11 03:49:34;;;;;;;8.649999;6.45;;;;;;;4.93;82.26367;96494.98;;;;
2020/01/11 03:50:35;;;;;;;7.200001;5.649999;;;;;;;4.96;82.16309;96531.28;;;;
2020/01/11 03:51:36;;;;;;;7.200001;5.649999;;;;;;;4.96;82.16309;96531.28;;;;
2020/01/11 03:52:36;;;;;;;7.200001;5.649999;;;;;;;4.96;82.16309;96531.28;;;;
2020/01/11 03:53:37;;;;;;;7.200001;5.649999;;;;;;;4.96;82.16309;96531.28;;;;
2020/01/11 03:54:37;;;;;;;7.200001;5.649999;;;;;;;4.96;82.16309;96531.28;;;;
2020/01/11 03:55:38;;;;;;;7.200001;5.649999;;;;;;;4.96;82.16309;96531.28;;;;
2020/01/11 03:56:38;;;;;;;7.200001;5.649999;;;;;;;4.96;82.16309;96531.28;;;;
2020/01/11 03:57:39;;;;;;;7.200001;5.649999;;;;;;;4.96;82.16309;96531.28;;;;
2020/01/11 03:58:39;;;;;;;7.200001;5.649999;;;;;;;4.96;82.16309;96531.28;;;;
2020/01/11 03:59:40;;;;;;;7.200001;5.649999;;;;;;;4.96;82.16309;96531.28;;;;
2020/01/11 04:00:40;;;;;;;7.55;5.700001;;;;;;;4.93;82.16797;96544.48;;;;
2020/01/11 04:01:41;;;;;;;7.55;5.700001;;;;;;;4.93;82.16797;96544.48;;;;
2020/01/11 04:02:41;;;;;;;7.55;5.700001;;;;;;;4.93;82.16797;96544.48;;;;
2020/01/11 04:03:42;;;;;;;7.55;5.700001;;;;;;;4.93;82.16797;96544.48;;;;
2020/01/11 04:04:42;;;;;;;7.55;5.700001;;;;;;;4.93;82.16797;96544.48;;;;
2020/01/11 04:05:42;;;;;;;7.55;5.700001;;;;;;;4.93;82.16797;96544.48;;;;
2020/01/11 04:06:43;;;;;;;7.55;5.700001;;;;;;;4.93;82.16797;96544.48;;;;
2020/01/11 04:07:43;;;;;;;7.55;5.700001;;;;;;;4.93;82.16797;96544.48;;;;
2020/01/11 04:08:44;;;;;;;7.55;5.700001;;;;;;;4.93;82.16797;96544.48;;;;
2020/01/11 04:09:44;;;;;;;7.55;5.700001;;;;;;;4.93;82.16797;96544.48;;;;
2020/01/11 04:10:45;;;;;;;7.55;5.700001;;;;;;;4.93;82.16797;96544.48;;;;
2020/01/11 04:11:45;;;;;;;7.65;5.6;;;;;;;4.91;82.30176;96540.72;;;;
2020/01/11 04:12:46;;;;;;;7.65;5.6;;;;;;;4.91;82.30176;96540.72;;;;
2020/01/11 04:13:46;;;;;;;7.65;5.6;;;;;;;4.91;82.30176;96540.72;;;;
2020/01/11 04:15:52;;;;;;;7.65;5.6;;;;;;;4.91;82.30176;96540.72;;;;
2020/01/11 04:16:55;;;;;;;7.65;5.6;;;;;;;4.91;82.30176;96540.72;;;;
2020/01/11 04:17:56;;;;;;;7.65;5.6;;;;;;;4.91;82.30176;96540.72;;;;
2020/01/11 04:18:57;;;;;;;7.65;5.6;;;;;;;4.91;82.30176;96540.72;;;;
2020/01/11 04:19:58;;;;;;;7.65;5.6;;;;;;;4.91;82.30176;96540.72;;;;
2020/01/11 04:20:59;;;;;;;7.65;5.6;;;;;;;4.91;82.30176;96540.72;;;;
2020/01/11 04:22:00;;;;;;;7.65;5.6;;;;;;;4.91;82.30176;96540.72;;;;
2020/01/11 04:23:00;;;;;;;7.65;5.6;;;;;;;4.91;82.30176;96540.72;;;;
2020/01/11 04:24:01;;;;;;;7.65;5.6;;;;;;;4.91;82.30176;96540.72;;;;
2020/01/11 04:25:01;;;;;;;7.65;5.6;;;;;;;4.91;82.30176;96540.72;;;;
2020/01/11 04:26:02;;;;;;;7.65;5.6;;;;;;;4.91;82.30176;96540.72;;;;
2020/01/11 04:27:02;;;;;;;7.65;5.6;;;;;;;4.91;82.30176;96540.72;;;;
2020/01/11 04:28:03;;;;;;;7.65;5.6;;;;;;;4.91;82.30176;96540.72;;;;
2020/01/11 04:29:03;;;;;;;7.65;5.6;;;;;;;4.91;82.30176;96540.72;;;;
2020/01/11 04:30:04;;;;;;;7.65;5.6;;;;;;;4.91;82.30176;96540.72;;;;
2020/01/11 04:31:04;;;;;;;7.65;5.6;;;;;;;4.91;82.30176;96540.72;;;;
2020/01/11 04:32:05;;;;;;;7.65;5.6;;;;;;;4.91;82.30176;96540.72;;;;
2020/01/11 04:33:05;;;;;;;7.050001;5.6;;;;;;;4.95;81.75;96520.64;;;;
2020/01/11 04:34:06;;;;;;;7.050001;5.6;;;;;;;4.95;81.75;96520.64;;;;
2020/01/11 04:35:06;;;;;;;7.050001;5.6;;;;;;;4.95;81.75;96520.64;;;;
2020/01/11 04:36:07;;;;;;;7.050001;5.6;;;;;;;4.95;81.75;96520.64;;;;
2020/01/11 04:37:07;;;;;;;7.050001;5.6;;;;;;;4.95;81.75;96520.64;;;;
2020/01/11 04:38:08;;;;;;;7.050001;5.6;;;;;;;4.95;81.75;96520.64;;;;
2020/01/11 04:39:08;;;;;;;7.050001;5.6;;;;;;;4.95;81.75;96520.64;;;;
2020/01/11 04:40:08;;;;;;;7.050001;5.6;;;;;;;4.95;81.75;96520.64;;;;
2020/01/11 04:41:09;;;;;;;7.050001;5.6;;;;;;;4.95;81.75;96520.64;;;;
2020/01/11 04:42:10;;;;;;;7.050001;5.6;;;;;;;4.95;81.75;96520.64;;;;
2020/01/11 04:43:10;;;;;;;7.7;5.750001;;;;;;;4.94;82;96530.19;;;;
2020/01/11 04:44:10;;;;;;;7.7;5.750001;;;;;;;4.94;82;96530.19;;;;
2020/01/11 04:45:11;;;;;;;7.7;5.750001;;;;;;;4.94;82;96530.19;;;;
2020/01/11 04:46:12;;;;;;;7.7;5.750001;;;;;;;4.94;82;96530.19;;;;
2020/01/11 04:47:12;;;;;;;7.7;5.750001;;;;;;;4.94;82;96530.19;;;;
2020/01/11 04:48:13;;;;;;;7.7;5.750001;;;;;;;4.94;82;96530.19;;;;
2020/01/11 04:49:14;;;;;;;7.7;5.750001;;;;;;;4.94;82;96530.19;;;;
2020/01/11 04:50:14;;;;;;;7.7;5.750001;;;;;;;4.94;82;96530.19;;;;
2020/01/11 04:51:15;;;;;;;7.7;5.750001;;;;;;;4.94;82;96530.19;;;;
2020/01/11 04:52:15;;;;;;;7.7;5.750001;;;;;;;4.94;82;96530.19;;;;
2020/01/11 04:53:16;;;;;;;7.7;5.750001;;;;;;;4.94;82;96530.19;;;;
2020/01/11 04:54:16;;;;;;;7.450001;6.25;;;;;;;4.81;82.1875;96532.97;;;;
2020/01/11 04:55:17;;;;;;;7.450001;6.25;;;;;;;4.81;82.1875;96532.97;;;;
2020/01/11 04:56:17;;;;;;;7.450001;6.25;;;;;;;4.81;82.1875;96532.97;;;;
2020/01/11 04:57:17;;;;;;;7.450001;6.25;;;;;;;4.81;82.1875;96532.97;;;;
2020/01/11 04:58:18;;;;;;;7.450001;6.25;;;;;;;4.81;82.1875;96532.97;;;;
2020/01/11 04:59:18;;;;;;;7.450001;6.25;;;;;;;4.81;82.1875;96532.97;;;;
2020/01/11 05:00:19;;;;;;;7.450001;6.25;;;;;;;4.81;82.1875;96532.97;;;;
2020/01/11 05:02:05;;;;;;;7.450001;6.25;;;;;;;4.81;82.1875;96532.97;;;;
2020/01/11 05:03:07;;;;;;;7.450001;6.25;;;;;;;4.81;82.1875;96532.97;;;;
2020/01/11 05:04:16;;;;;;;7.450001;6.25;;;;;;;4.81;82.1875;96532.97;;;;
2020/01/11 05:05:26;;;;;;;7.95;6.1;;;;;;;4.78;82.57129;96545.25;;;;
2020/01/11 05:06:27;;;;;;;7.95;6.1;;;;;;;4.78;82.57129;96545.25;;;;
2020/01/11 05:07:27;;;;;;;7.95;6.1;;;;;;;4.78;82.57129;96545.25;;;;
2020/01/11 05:08:28;;;;;;;7.95;6.1;;;;;;;4.78;82.57129;96545.25;;;;
2020/01/11 05:09:28;;;;;;;7.95;6.1;;;;;;;4.78;82.57129;96545.25;;;;
2020/01/11 05:10:29;;;;;;;7.95;6.1;;;;;;;4.78;82.57129;96545.25;;;;
2020/01/11 05:11:29;;;;;;;7.95;6.1;;;;;;;4.78;82.57129;96545.25;;;;
2020/01/11 05:12:30;;;;;;;7.95;6.1;;;;;;;4.78;82.57129;96545.25;;;;
2020/01/11 05:13:30;;;;;;;7.95;6.1;;;;;;;4.78;82.57129;96545.25;;;;
2020/01/11 05:14:31;;;;;;;7.95;6.1;;;;;;;4.78;82.57129;96545.25;;;;
2020/01/11 05:15:31;;;;;;;7.55;5.750001;;;;;;;4.74;82.44629;96561.83;;;;
2020/01/11 05:16:32;;;;;;;7.55;5.750001;;;;;;;4.74;82.44629;96561.83;;;;
2020/01/11 05:17:32;;;;;;;7.55;5.750001;;;;;;;4.74;82.44629;96561.83;;;;
2020/01/11 05:18:33;;;;;;;7.55;5.750001;;;;;;;4.74;82.44629;96561.83;;;;
2020/01/11 05:19:33;;;;;;;7.55;5.750001;;;;;;;4.74;82.44629;96561.83;;;;
2020/01/11 05:20:34;;;;;;;7.55;5.750001;;;;;;;4.74;82.44629;96561.83;;;;
2020/01/11 05:21:34;;;;;;;7.55;5.750001;;;;;;;4.74;82.44629;96561.83;;;;
2020/01/11 05:22:34;;;;;;;7.55;5.750001;;;;;;;4.74;82.44629;96561.83;;;;
2020/01/11 05:23:35;;;;;;;7.55;5.750001;;;;;;;4.74;82.44629;96561.83;;;;
2020/01/11 05:24:35;;;;;;;7.55;5.750001;;;;;;;4.74;82.44629;96561.83;;;;
2020/01/11 05:25:36;;;;;;;7.7;6.000001;;;;;;;4.76;82.47168;96561.16;;;;
2020/01/11 05:26:36;;;;;;;7.7;6.000001;;;;;;;4.76;82.47168;96561.16;;;;
2020/01/11 05:27:37;;;;;;;7.7;6.000001;;;;;;;4.76;82.47168;96561.16;;;;
2020/01/11 05:28:37;;;;;;;7.7;6.000001;;;;;;;4.76;82.47168;96561.16;;;;
2020/01/11 05:29:38;;;;;;;7.7;6.000001;;;;;;;4.76;82.47168;96561.16;;;;
2020/01/11 05:30:38;;;;;;;7.7;6.000001;;;;;;;4.76;82.47168;96561.16;;;;
2020/01/11 05:31:38;;;;;;;7.7;6.000001;;;;;;;4.76;82.47168;96561.16;;;;
2020/01/11 05:32:39;;;;;;;7.7;6.000001;;;;;;;4.76;82.47168;96561.16;;;;
2020/01/11 05:33:39;;;;;;;7.7;6.000001;;;;;;;4.76;82.47168;96561.16;;;;
2020/01/11 05:34:40;;;;;;;7.7;6.000001;;;;;;;4.76;82.47168;96561.16;;;;
2020/01/11 05:35:40;;;;;;;7.7;6.000001;;;;;;;4.76;82.47168;96561.16;;;;
2020/01/11 05:36:49;;;;;;;7.850001;6.1;;;;;;;4.68;82.32031;96574.11;;;;
2020/01/11 05:37:55;;;;;;;7.850001;6.1;;;;;;;4.68;82.32031;96574.11;;;;
2020/01/11 05:38:56;;;;;;;7.850001;6.1;;;;;;;4.68;82.32031;96574.11;;;;
2020/01/11 05:39:57;;;;;;;7.850001;6.1;;;;;;;4.68;82.32031;96574.11;;;;
2020/01/11 05:40:58;;;;;;;7.850001;6.1;;;;;;;4.68;82.32031;96574.11;;;;
2020/01/11 05:41:58;;;;;;;7.850001;6.1;;;;;;;4.68;82.32031;96574.11;;;;
2020/01/11 05:42:59;;;;;;;7.850001;6.1;;;;;;;4.68;82.32031;96574.11;;;;
2020/01/11 05:43:59;;;;;;;7.850001;6.1;;;;;;;4.68;82.32031;96574.11;;;;
2020/01/11 05:45:00;;;;;;;7.850001;6.1;;;;;;;4.68;82.32031;96574.11;;;;
2020/01/11 05:46:00;;;;;;;7.850001;6.1;;;;;;;4.68;82.32031;96574.11;;;;
2020/01/11 05:47:01;;;;;;;7.45;6.1;;;;;;;4.66;82.45313;96588.56;;;;
2020/01/11 05:48:01;;;;;;;7.45;6.1;;;;;;;4.66;82.45313;96588.56;;;;
2020/01/11 05:49:02;;;;;;;7.45;6.1;;;;;;;4.66;82.45313;96588.56;;;;
2020/01/11 05:50:02;;;;;;;7.45;6.1;;;;;;;4.66;82.45313;96588.56;;;;
2020/01/11 05:51:02;;;;;;;7.45;6.1;;;;;;;4.66;82.45313;96588.56;;;;
2020/01/11 05:52:03;;;;;;;7.45;6.1;;;;;;;4.66;82.45313;96588.56;;;;
2020/01/11 05:53:03;;;;;;;7.45;6.1;;;;;;;4.66;82.45313;96588.56;;;;
2020/01/11 05:54:04;;;;;;;7.45;6.1;;;;;;;4.66;82.45313;96588.56;;;;
2020/01/11 05:55:04;;;;;;;7.45;6.1;;;;;;;4.66;82.45313;96588.56;;;;